sensor_id;sensor_type;location;lat;lon;timestamp;pressure;altitude;pressure_sealevel;temperature
49154;BMP280;49455;52.252;9.124;2023-04-24T00:02:59;98034.13;;;11.90
49154;BMP280;49455;52.252;9.124;2023-04-24T00:07:59;98041.88;;;11.95
49154;BMP280;49455;52.252;9.124;2023-04-24T00:12:59;98047.97;;;11.83
49154;BMP280;49455;52.252;9.124;2023-04-24T00:18:00;98051.44;;;11.74
49154;BMP280;49455;52.252;9.124;2023-04-24T00:23:00;98055.81;;;11.63
49154;BMP280;49455;52.252;9.124;2023-04-24T00:28:01;98042.91;;;11.51
49154;BMP280;49455;52.252;9.124;2023-04-24T00:33:01;98054.94;;;11.37
49154;BMP280;49455;52.252;9.124;2023-04-24T00:38:02;98050.69;;;11.27
49154;BMP280;49455;52.252;9.124;2023-04-24T00:43:02;98050.69;;;11.17
49154;BMP280;49455;52.252;9.124;2023-04-24T00:48:03;98039.47;;;11.05
49154;BMP280;49455;52.252;9.124;2023-04-24T00:53:04;98036.06;;;11.03
49154;BMP280;49455;52.252;9.124;2023-04-24T00:58:04;98040.34;;;10.99
49154;BMP280;49455;52.252;9.124;2023-04-24T01:03:05;98026.56;;;10.86
49154;BMP280;49455;52.252;9.124;2023-04-24T01:08:07;98027.44;;;10.77
49154;BMP280;49455;52.252;9.124;2023-04-24T01:13:08;98017.97;;;10.75
49154;BMP280;49455;52.252;9.124;2023-04-24T01:18:08;98024.00;;;10.69
49154;BMP280;49455;52.252;9.124;2023-04-24T01:23:09;98018.84;;;10.72
49154;BMP280;49455;52.252;9.124;2023-04-24T01:28:09;98024.88;;;10.74
49154;BMP280;49455;52.252;9.124;2023-04-24T01:33:10;98022.28;;;10.71
49154;BMP280;49455;52.252;9.124;2023-04-24T01:38:11;98018.00;;;10.67
49154;BMP280;49455;52.252;9.124;2023-04-24T01:43:12;98017.09;;;10.67
49154;BMP280;49455;52.252;9.124;2023-04-24T01:48:13;98016.28;;;10.65
49154;BMP280;49455;52.252;9.124;2023-04-24T01:53:13;98015.41;;;10.76
49154;BMP280;49455;52.252;9.124;2023-04-24T01:58:14;98011.94;;;10.74
49154;BMP280;49455;52.252;9.124;2023-04-24T02:03:14;97999.03;;;10.74
49154;BMP280;49455;52.252;9.124;2023-04-24T02:08:15;98001.63;;;10.74
49154;BMP280;49455;52.252;9.124;2023-04-24T02:13:15;98000.75;;;10.66
49154;BMP280;49455;52.252;9.124;2023-04-24T02:18:16;98001.63;;;10.59
49154;BMP280;49455;52.252;9.124;2023-04-24T02:23:16;98007.66;;;10.48
49154;BMP280;49455;52.252;9.124;2023-04-24T02:28:16;98006.78;;;10.36
49154;BMP280;49455;52.252;9.124;2023-04-24T02:33:17;98017.94;;;10.26
49154;BMP280;49455;52.252;9.124;2023-04-24T02:38:17;98010.19;;;10.25
49154;BMP280;49455;52.252;9.124;2023-04-24T02:43:18;98018.78;;;10.24
49154;BMP280;49455;52.252;9.124;2023-04-24T02:48:18;98017.94;;;10.23
49154;BMP280;49455;52.252;9.124;2023-04-24T02:53:18;98021.38;;;10.22
49154;BMP280;49455;52.252;9.124;2023-04-24T02:58:19;98016.22;;;10.29
49154;BMP280;49455;52.252;9.124;2023-04-24T03:03:19;98015.34;;;10.17
49154;BMP280;49455;52.252;9.124;2023-04-24T03:08:20;98014.50;;;10.24
49154;BMP280;49455;52.252;9.124;2023-04-24T03:13:20;98013.63;;;10.25
49154;BMP280;49455;52.252;9.124;2023-04-24T03:18:21;98013.63;;;10.19
49154;BMP280;49455;52.252;9.124;2023-04-24T03:23:23;98016.22;;;10.27
49154;BMP280;49455;52.252;9.124;2023-04-24T03:28:24;98024.81;;;10.26
49154;BMP280;49455;52.252;9.124;2023-04-24T03:33:31;98015.31;;;10.13
49154;BMP280;49455;52.252;9.124;2023-04-24T03:38:34;98012.75;;;10.14
49154;BMP280;49455;52.252;9.124;2023-04-24T03:43:50;98014.50;;;10.21
49154;BMP280;49455;52.252;9.124;2023-04-24T03:48:51;98015.38;;;10.27
49154;BMP280;49455;52.252;9.124;2023-04-24T03:53:54;98010.22;;;10.36
49154;BMP280;49455;52.252;9.124;2023-04-24T03:58:56;98002.47;;;10.44
49154;BMP280;49455;52.252;9.124;2023-04-24T04:03:57;98010.22;;;10.50
49154;BMP280;49455;52.252;9.124;2023-04-24T04:08:59;98005.06;;;10.56
49154;BMP280;49455;52.252;9.124;2023-04-24T04:14:00;98002.50;;;10.60
49154;BMP280;49455;52.252;9.124;2023-04-24T04:19:01;98003.34;;;10.60
49154;BMP280;49455;52.252;9.124;2023-04-24T04:24:01;98010.22;;;10.61
49154;BMP280;49455;52.252;9.124;2023-04-24T04:29:07;98018.00;;;10.64
49154;BMP280;49455;52.252;9.124;2023-04-24T04:34:11;98010.25;;;10.64
49154;BMP280;49455;52.252;9.124;2023-04-24T04:39:13;98013.69;;;10.68
49154;BMP280;49455;52.252;9.124;2023-04-24T04:44:24;98024.00;;;10.69
49154;BMP280;49455;52.252;9.124;2023-04-24T04:49:26;98017.13;;;10.65
49154;BMP280;49455;52.252;9.124;2023-04-24T04:54:26;98012.84;;;10.64
49154;BMP280;49455;52.252;9.124;2023-04-24T04:59:27;98020.56;;;10.69
49154;BMP280;49455;52.252;9.124;2023-04-24T05:04:35;98017.13;;;10.65
49154;BMP280;49455;52.252;9.124;2023-04-24T05:09:35;98015.41;;;10.67
49154;BMP280;49455;52.252;9.124;2023-04-24T05:14:39;98016.25;;;10.72
49154;BMP280;49455;52.252;9.124;2023-04-24T05:19:40;98026.59;;;10.83
49154;BMP280;49455;52.252;9.124;2023-04-24T05:24:42;98018.84;;;10.81
49154;BMP280;49455;52.252;9.124;2023-04-24T05:30:02;98036.06;;;10.85
49154;BMP280;49455;52.252;9.124;2023-04-24T05:35:04;98035.19;;;10.85
49154;BMP280;49455;52.252;9.124;2023-04-24T05:40:04;98040.38;;;10.71
49154;BMP280;49455;52.252;9.124;2023-04-24T05:45:06;98046.41;;;10.76
49154;BMP280;49455;52.252;9.124;2023-04-24T05:50:06;98049.81;;;10.66
49154;BMP280;49455;52.252;9.124;2023-04-24T05:55:07;98064.47;;;10.57
49154;BMP280;49455;52.252;9.124;2023-04-24T06:00:12;98074.78;;;10.48
49154;BMP280;49455;52.252;9.124;2023-04-24T06:05:22;98067.00;;;10.32
49154;BMP280;49455;52.252;9.124;2023-04-24T06:10:23;98068.69;;;10.21
49154;BMP280;49455;52.252;9.124;2023-04-24T06:15:23;98069.53;;;10.20
49154;BMP280;49455;52.252;9.124;2023-04-24T06:20:33;98078.22;;;10.43
49154;BMP280;49455;52.252;9.124;2023-04-24T06:25:35;98089.44;;;10.57
49154;BMP280;49455;52.252;9.124;2023-04-24T06:30:36;98096.31;;;10.63
49154;BMP280;49455;52.252;9.124;2023-04-24T06:35:36;98085.06;;;10.45
49154;BMP280;49455;52.252;9.124;2023-04-24T06:40:37;98087.63;;;10.30
49154;BMP280;49455;52.252;9.124;2023-04-24T06:45:38;98098.00;;;10.53
49154;BMP280;49455;52.252;9.124;2023-04-24T06:50:38;98097.16;;;10.46
49154;BMP280;49455;52.252;9.124;2023-04-24T06:55:39;98093.63;;;10.25
49154;BMP280;49455;52.252;9.124;2023-04-24T07:00:39;98100.53;;;10.25
49154;BMP280;49455;52.252;9.124;2023-04-24T07:05:39;98102.25;;;10.27
49154;BMP280;49455;52.252;9.124;2023-04-24T07:10:40;98101.44;;;10.43
49154;BMP280;49455;52.252;9.124;2023-04-24T07:15:40;98102.25;;;10.27
49154;BMP280;49455;52.252;9.124;2023-04-24T07:20:41;98104.78;;;10.18
49154;BMP280;49455;52.252;9.124;2023-04-24T07:25:41;98110.78;;;10.08
49154;BMP280;49455;52.252;9.124;2023-04-24T07:30:42;98110.75;;;10.04
49154;BMP280;49455;52.252;9.124;2023-04-24T07:35:42;98126.22;;;9.97
49154;BMP280;49455;52.252;9.124;2023-04-24T07:40:43;98118.50;;;9.99
49154;BMP280;49455;52.252;9.124;2023-04-24T07:45:43;98123.72;;;10.20
49154;BMP280;49455;52.252;9.124;2023-04-24T07:50:44;98125.47;;;10.21
49154;BMP280;49455;52.252;9.124;2023-04-24T07:55:45;98122.00;;;10.19
49154;BMP280;49455;52.252;9.124;2023-04-24T08:00:46;98130.75;;;10.57
49154;BMP280;49455;52.252;9.124;2023-04-24T08:05:46;98130.75;;;10.59
49154;BMP280;49455;52.252;9.124;2023-04-24T08:10:47;98130.69;;;10.39
49154;BMP280;49455;52.252;9.124;2023-04-24T08:15:47;98128.97;;;10.35
49154;BMP280;49455;52.252;9.124;2023-04-24T08:20:48;98135.84;;;10.42
49154;BMP280;49455;52.252;9.124;2023-04-24T08:25:48;98144.50;;;10.53
49154;BMP280;49455;52.252;9.124;2023-04-24T08:30:49;98151.41;;;10.59
49154;BMP280;49455;52.252;9.124;2023-04-24T08:35:49;98141.06;;;10.57
49154;BMP280;49455;52.252;9.124;2023-04-24T08:40:50;98138.44;;;10.43
49154;BMP280;49455;52.252;9.124;2023-04-24T08:45:51;98147.94;;;10.52
49154;BMP280;49455;52.252;9.124;2023-04-24T08:50:52;98143.63;;;10.58
49154;BMP280;49455;52.252;9.124;2023-04-24T08:55:54;98147.06;;;10.53
49154;BMP280;49455;52.252;9.124;2023-04-24T09:00:55;98147.03;;;10.42
49154;BMP280;49455;52.252;9.124;2023-04-24T09:05:56;98137.63;;;10.66
49154;BMP280;49455;52.252;9.124;2023-04-24T09:10:57;98143.66;;;10.68
49154;BMP280;49455;52.252;9.124;2023-04-24T09:15:57;98144.56;;;10.82
49154;BMP280;49455;52.252;9.124;2023-04-24T09:21:06;98153.13;;;10.69
49154;BMP280;49455;52.252;9.124;2023-04-24T09:26:08;98137.66;;;10.75
49154;BMP280;49455;52.252;9.124;2023-04-24T09:31:14;98144.59;;;11.53
49154;BMP280;49455;52.252;9.124;2023-04-24T09:36:17;98140.19;;;12.11
49154;BMP280;49455;52.252;9.124;2023-04-24T09:41:17;98147.13;;;11.85
49154;BMP280;49455;52.252;9.124;2023-04-24T09:46:18;98148.94;;;11.54
49154;BMP280;49455;52.252;9.124;2023-04-24T09:51:33;98161.00;;;11.48
49154;BMP280;49455;52.252;9.124;2023-04-24T09:56:34;98154.94;;;10.97
49154;BMP280;49455;52.252;9.124;2023-04-24T10:01:34;98176.41;;;10.74
49154;BMP280;49455;52.252;9.124;2023-04-24T10:06:35;98169.53;;;10.79
49154;BMP280;49455;52.252;9.124;2023-04-24T10:11:35;98159.22;;;10.98
49154;BMP280;49455;52.252;9.124;2023-04-24T10:16:37;98162.69;;;11.19
49154;BMP280;49455;52.252;9.124;2023-04-24T10:21:40;98148.03;;;11.19
49154;BMP280;49455;52.252;9.124;2023-04-24T10:26:41;98147.16;;;11.07
49154;BMP280;49455;52.252;9.124;2023-04-24T10:31:41;98143.72;;;11.36
49154;BMP280;49455;52.252;9.124;2023-04-24T10:36:46;98151.47;;;11.36
49154;BMP280;49455;52.252;9.124;2023-04-24T10:41:51;98155.84;;;11.40
49154;BMP280;49455;52.252;9.124;2023-04-24T10:46:55;98154.06;;;11.14
49154;BMP280;49455;52.252;9.124;2023-04-24T10:52:00;98171.22;;;10.66
49154;BMP280;49455;52.252;9.124;2023-04-24T11:02:36;98175.59;;;10.97
49154;BMP280;49455;52.252;9.124;2023-04-24T11:13:14;98187.66;;;11.05
49154;BMP280;49455;52.252;9.124;2023-04-24T11:18:15;98198.91;;;11.75
49154;BMP280;49455;52.252;9.124;2023-04-24T11:23:15;98198.91;;;11.53
49154;BMP280;49455;52.252;9.124;2023-04-24T11:28:16;98201.44;;;11.23
49154;BMP280;49455;52.252;9.124;2023-04-24T11:33:20;98203.19;;;11.24
49154;BMP280;49455;52.252;9.124;2023-04-24T11:38:20;98218.66;;;11.04
49154;BMP280;49455;52.252;9.124;2023-04-24T11:43:21;98226.28;;;10.58
49154;BMP280;49455;52.252;9.124;2023-04-24T11:48:21;98232.38;;;10.76
49154;BMP280;49455;52.252;9.124;2023-04-24T11:53:22;98241.78;;;10.61
49154;BMP280;49455;52.252;9.124;2023-04-24T11:58:22;98249.56;;;10.68
49154;BMP280;49455;52.252;9.124;2023-04-24T12:03:23;98263.25;;;10.53
49154;BMP280;49455;52.252;9.124;2023-04-24T12:08:27;98274.25;;;10.18
49154;BMP280;49455;52.252;9.124;2023-04-24T12:13:27;98284.44;;;9.97
49154;BMP280;49455;52.252;9.124;2023-04-24T12:18:28;98295.44;;;9.78
49154;BMP280;49455;52.252;9.124;2023-04-24T12:23:35;98302.31;;;9.79
49154;BMP280;49455;52.252;9.124;2023-04-24T12:28:37;98303.13;;;9.74
49154;BMP280;49455;52.252;9.124;2023-04-24T12:33:37;98320.31;;;9.72
49154;BMP280;49455;52.252;9.124;2023-04-24T12:38:38;98323.16;;;10.00
49154;BMP280;49455;52.252;9.124;2023-04-24T12:43:53;98335.00;;;9.82
49154;BMP280;49455;52.252;9.124;2023-04-24T12:48:54;98338.22;;;9.57
49154;BMP280;49455;52.252;9.124;2023-04-24T12:53:54;98353.47;;;9.36
49154;BMP280;49455;52.252;9.124;2023-04-24T12:58:54;98358.59;;;9.34
49154;BMP280;49455;52.252;9.124;2023-04-24T13:03:55;98390.94;;;9.08
49154;BMP280;49455;52.252;9.124;2023-04-24T13:08:55;98402.81;;;8.97
49154;BMP280;49455;52.252;9.124;2023-04-24T13:13:56;98404.28;;;8.77
49154;BMP280;49455;52.252;9.124;2023-04-24T13:18:56;98409.25;;;8.66
49154;BMP280;49455;52.252;9.124;2023-04-24T13:23:56;98419.53;;;8.66
49154;BMP280;49455;52.252;9.124;2023-04-24T13:28:57;98418.59;;;8.61
49154;BMP280;49455;52.252;9.124;2023-04-24T13:33:57;98424.88;;;8.77
49154;BMP280;49455;52.252;9.124;2023-04-24T13:38:58;98437.75;;;8.79
49154;BMP280;49455;52.252;9.124;2023-04-24T13:43:58;98436.66;;;8.62
49154;BMP280;49455;52.252;9.124;2023-04-24T13:48:59;98460.69;;;8.61
49154;BMP280;49455;52.252;9.124;2023-04-24T13:53:59;98463.81;;;8.44
49154;BMP280;49455;52.252;9.124;2023-04-24T13:59:00;98458.50;;;8.34
49154;BMP280;49455;52.252;9.124;2023-04-24T14:04:00;98474.06;;;8.41
49154;BMP280;49455;52.252;9.124;2023-04-24T14:09:00;98469.88;;;8.46
49154;BMP280;49455;52.252;9.124;2023-04-24T14:14:01;98472.41;;;8.43
49154;BMP280;49455;52.252;9.124;2023-04-24T14:19:02;98476.69;;;8.44
49154;BMP280;49455;52.252;9.124;2023-04-24T14:24:02;98479.13;;;8.35
49154;BMP280;49455;52.252;9.124;2023-04-24T14:29:02;98492.66;;;8.24
49154;BMP280;49455;52.252;9.124;2023-04-24T14:34:03;98491.91;;;8.31
49154;BMP280;49455;52.252;9.124;2023-04-24T14:39:03;98494.69;;;8.44
49154;BMP280;49455;52.252;9.124;2023-04-24T14:44:04;98501.09;;;8.67
49154;BMP280;49455;52.252;9.124;2023-04-24T14:49:04;98506.25;;;8.68
49154;BMP280;49455;52.252;9.124;2023-04-24T14:54:04;98507.16;;;8.72
49154;BMP280;49455;52.252;9.124;2023-04-24T14:59:05;98506.28;;;8.70
49154;BMP280;49455;52.252;9.124;2023-04-24T15:04:05;98514.94;;;8.73
49154;BMP280;49455;52.252;9.124;2023-04-24T15:09:06;98508.00;;;8.71
49154;BMP280;49455;52.252;9.124;2023-04-24T15:14:06;98516.78;;;8.81
49154;BMP280;49455;52.252;9.124;2023-04-24T15:19:07;98524.50;;;8.81
49154;BMP280;49455;52.252;9.124;2023-04-24T15:24:08;98526.34;;;8.88
49154;BMP280;49455;52.252;9.124;2023-04-24T15:29:08;98520.28;;;8.88
49154;BMP280;49455;52.252;9.124;2023-04-24T15:34:08;98540.84;;;8.85
49154;BMP280;49455;52.252;9.124;2023-04-24T15:39:09;98534.25;;;9.02
49154;BMP280;49455;52.252;9.124;2023-04-24T15:44:09;98549.66;;;8.97
49154;BMP280;49455;52.252;9.124;2023-04-24T15:49:10;98554.53;;;8.81
49154;BMP280;49455;52.252;9.124;2023-04-24T15:54:10;98559.78;;;8.87
49154;BMP280;49455;52.252;9.124;2023-04-24T15:59:11;98564.94;;;8.87
49154;BMP280;49455;52.252;9.124;2023-04-24T16:04:11;98567.25;;;8.71
49154;BMP280;49455;52.252;9.124;2023-04-24T16:09:11;98587.78;;;8.68
49154;BMP280;49455;52.252;9.124;2023-04-24T16:14:12;98584.34;;;8.69
49154;BMP280;49455;52.252;9.124;2023-04-24T16:19:12;98587.50;;;8.53
49154;BMP280;49455;52.252;9.124;2023-04-24T16:24:13;98601.34;;;8.58
49154;BMP280;49455;52.252;9.124;2023-04-24T16:29:13;98593.56;;;8.53
49154;BMP280;49455;52.252;9.124;2023-04-24T16:34:14;98602.94;;;8.53
49154;BMP280;49455;52.252;9.124;2023-04-24T16:39:14;98601.72;;;8.32
49154;BMP280;49455;52.252;9.124;2023-04-24T16:44:14;98612.94;;;8.35
49154;BMP280;49455;52.252;9.124;2023-04-24T16:49:15;98620.25;;;8.14
49154;BMP280;49455;52.252;9.124;2023-04-24T16:54:15;98628.81;;;8.14
49154;BMP280;49455;52.252;9.124;2023-04-24T16:59:16;98627.31;;;8.26
49154;BMP280;49455;52.252;9.124;2023-04-24T17:04:16;98626.44;;;8.25
49154;BMP280;49455;52.252;9.124;2023-04-24T17:09:17;98628.00;;;8.17
49154;BMP280;49455;52.252;9.124;2023-04-24T17:14:17;98627.94;;;8.14
49154;BMP280;49455;52.252;9.124;2023-04-24T17:19:17;98629.72;;;8.17
49154;BMP280;49455;52.252;9.124;2023-04-24T17:24:18;98625.50;;;8.20
49154;BMP280;49455;52.252;9.124;2023-04-24T17:29:18;98628.75;;;8.11
49154;BMP280;49455;52.252;9.124;2023-04-24T17:34:19;98618.41;;;8.09
49154;BMP280;49455;52.252;9.124;2023-04-24T17:39:19;98629.94;;;8.27
49154;BMP280;49455;52.252;9.124;2023-04-24T17:44:19;98622.69;;;8.51
49154;BMP280;49455;52.252;9.124;2023-04-24T17:49:20;98621.88;;;8.55
49154;BMP280;49455;52.252;9.124;2023-04-24T17:54:20;98627.41;;;8.29
49154;BMP280;49455;52.252;9.124;2023-04-24T17:59:21;98628.81;;;8.15
49154;BMP280;49455;52.252;9.124;2023-04-24T18:04:21;98636.03;;;7.93
49154;BMP280;49455;52.252;9.124;2023-04-24T18:09:22;98647.00;;;7.83
49154;BMP280;49455;52.252;9.124;2023-04-24T18:14:22;98652.72;;;7.70
49154;BMP280;49455;52.252;9.124;2023-04-24T18:19:23;98659.38;;;7.62
49154;BMP280;49455;52.252;9.124;2023-04-24T18:24:23;98660.91;;;7.53
49154;BMP280;49455;52.252;9.124;2023-04-24T18:29:24;98662.56;;;7.53
49154;BMP280;49455;52.252;9.124;2023-04-24T18:34:24;98661.63;;;7.48
49154;BMP280;49455;52.252;9.124;2023-04-24T18:39:25;98667.50;;;7.44
49154;BMP280;49455;52.252;9.124;2023-04-24T18:44:25;98677.78;;;7.44
49154;BMP280;49455;52.252;9.124;2023-04-24T18:49:26;98683.13;;;7.51
49154;BMP280;49455;52.252;9.124;2023-04-24T18:54:26;98681.41;;;7.52
49154;BMP280;49455;52.252;9.124;2023-04-24T18:59:26;98687.47;;;7.55
49154;BMP280;49455;52.252;9.124;2023-04-24T19:04:28;98684.84;;;7.52
49154;BMP280;49455;52.252;9.124;2023-04-24T19:09:28;98682.19;;;7.48
49154;BMP280;49455;52.252;9.124;2023-04-24T19:14:29;98695.16;;;7.53
49154;BMP280;49455;52.252;9.124;2023-04-24T19:19:29;98698.56;;;7.53
49154;BMP280;49455;52.252;9.124;2023-04-24T19:24:30;98702.69;;;7.46
49154;BMP280;49455;52.252;9.124;2023-04-24T19:29:30;98705.16;;;7.42
49154;BMP280;49455;52.252;9.124;2023-04-24T19:34:30;98712.75;;;7.37
49154;BMP280;49455;52.252;9.124;2023-04-24T19:39:31;98708.22;;;7.26
49154;BMP280;49455;52.252;9.124;2023-04-24T19:44:31;98712.28;;;7.18
49154;BMP280;49455;52.252;9.124;2023-04-24T19:49:32;98715.50;;;7.10
49154;BMP280;49455;52.252;9.124;2023-04-24T19:54:32;98711.91;;;7.03
49154;BMP280;49455;52.252;9.124;2023-04-24T19:59:32;98711.16;;;7.07
49154;BMP280;49455;52.252;9.124;2023-04-24T20:04:33;98710.38;;;7.10
49154;BMP280;49455;52.252;9.124;2023-04-24T20:09:33;98712.03;;;7.08
49154;BMP280;49455;52.252;9.124;2023-04-24T20:14:34;98706.09;;;7.10
49154;BMP280;49455;52.252;9.124;2023-04-24T20:19:37;98707.72;;;7.07
49154;BMP280;49455;52.252;9.124;2023-04-24T20:24:38;98706.03;;;7.09
49154;BMP280;49455;52.252;9.124;2023-04-24T20:29:38;98707.75;;;7.08
49154;BMP280;49455;52.252;9.124;2023-04-24T20:34:38;98710.38;;;7.11
49154;BMP280;49455;52.252;9.124;2023-04-24T20:39:39;98698.31;;;7.07
49154;BMP280;49455;52.252;9.124;2023-04-24T20:44:39;98710.50;;;7.16
49154;BMP280;49455;52.252;9.124;2023-04-24T20:49:39;98695.97;;;7.16
49154;BMP280;49455;52.252;9.124;2023-04-24T20:54:40;98693.53;;;7.21
49154;BMP280;49455;52.252;9.124;2023-04-24T20:59:40;98707.28;;;7.24
49154;BMP280;49455;52.252;9.124;2023-04-24T21:04:41;98705.66;;;7.26
49154;BMP280;49455;52.252;9.124;2023-04-24T21:09:41;98710.00;;;7.30
49154;BMP280;49455;52.252;9.124;2023-04-24T21:14:42;98714.22;;;7.26
49154;BMP280;49455;52.252;9.124;2023-04-24T21:19:42;98711.59;;;7.25
49154;BMP280;49455;52.252;9.124;2023-04-24T21:24:42;98719.28;;;7.25
49154;BMP280;49455;52.252;9.124;2023-04-24T21:29:43;98709.88;;;7.24
49154;BMP280;49455;52.252;9.124;2023-04-24T21:34:43;98712.38;;;7.21
49154;BMP280;49455;52.252;9.124;2023-04-24T21:39:44;98704.72;;;7.24
49154;BMP280;49455;52.252;9.124;2023-04-24T21:44:44;98710.59;;;7.19
49154;BMP280;49455;52.252;9.124;2023-04-24T21:49:47;98709.78;;;7.21
49154;BMP280;49455;52.252;9.124;2023-04-24T21:54:48;98709.72;;;7.18
49154;BMP280;49455;52.252;9.124;2023-04-24T21:59:49;98713.16;;;7.20
49154;BMP280;49455;52.252;9.124;2023-04-24T22:04:50;98716.66;;;7.22
49154;BMP280;49455;52.252;9.124;2023-04-24T22:09:50;98712.16;;;7.12
49154;BMP280;49455;52.252;9.124;2023-04-24T22:14:50;98714.72;;;7.12
49154;BMP280;49455;52.252;9.124;2023-04-24T22:19:51;98715.59;;;7.13
49154;BMP280;49455;52.252;9.124;2023-04-24T22:24:51;98716.50;;;7.16
49154;BMP280;49455;52.252;9.124;2023-04-24T22:29:52;98714.72;;;7.12
49154;BMP280;49455;52.252;9.124;2023-04-24T22:34:52;98725.56;;;7.02
49154;BMP280;49455;52.252;9.124;2023-04-24T22:39:53;98724.66;;;7.00
49154;BMP280;49455;52.252;9.124;2023-04-24T22:44:53;98733.22;;;7.01
49154;BMP280;49455;52.252;9.124;2023-04-24T22:49:54;98735.00;;;7.02
49154;BMP280;49455;52.252;9.124;2023-04-24T22:54:54;98730.63;;;6.99
49154;BMP280;49455;52.252;9.124;2023-04-24T22:59:54;98736.44;;;6.93
49154;BMP280;49455;52.252;9.124;2023-04-24T23:04:55;98734.78;;;6.94
49154;BMP280;49455;52.252;9.124;2023-04-24T23:09:55;98727.88;;;6.92
49154;BMP280;49455;52.252;9.124;2023-04-24T23:14:56;98728.72;;;6.91
49154;BMP280;49455;52.252;9.124;2023-04-24T23:19:56;98721.66;;;6.83
49154;BMP280;49455;52.252;9.124;2023-04-24T23:24:56;98720.66;;;6.79
49154;BMP280;49455;52.252;9.124;2023-04-24T23:29:57;98725.72;;;6.76
49154;BMP280;49455;52.252;9.124;2023-04-24T23:34:57;98717.25;;;6.79
49154;BMP280;49455;52.252;9.124;2023-04-24T23:39:58;98717.13;;;6.74
49154;BMP280;49455;52.252;9.124;2023-04-24T23:44:58;98705.09;;;6.72
49154;BMP280;49455;52.252;9.124;2023-04-24T23:49:59;98714.38;;;6.68
49154;BMP280;49455;52.252;9.124;2023-04-24T23:55:00;98708.22;;;6.62
